Time;durP1;ratioP1;P1;durP2;ratioP2;P2;SDS_P1;SDS_P2;PMS_P1;PMS_P2;Temp;Humidity;BMP_temperature;BMP_pressure;BME280_temperature;BME280_humidity;BME280_pressure;Samples;Min_cycle;Max_cycle;Signal;HPM_P1;HPM_P2
2022/02/01 00:02:08;;;;;;;46.05;19.48;;;;;;;0.56;100.00;97786.80;2169492;82;21124;-80
2022/02/01 00:05:16;;;;;;;41.98;19.42;;;;;;;0.54;100.00;97791.25;2170009;82;21033;-78
2022/02/01 00:14:53;;;;;;;45.10;20.00;;;;;;;0.47;100.00;97797.45;2096278;84;21155;-80
2022/02/01 00:17:56;;;;;;;57.23;20.75;;;;;;;0.43;100.00;97796.09;2090096;83;21072;-80
2022/02/01 00:37:18;;;;;;;60.40;24.47;;;;;;;-0.02;100.00;97804.86;1977604;90;21124;-79
2022/02/01 00:40:15;;;;;;;56.35;23.38;;;;;;;-0.05;100.00;97812.86;1977034;90;21089;-79
2022/02/01 00:43:15;;;;;;;52.73;24.23;;;;;;;-0.09;100.00;97817.47;1977908;89;21684;-79
2022/02/01 00:46:16;;;;;;;60.88;26.50;;;;;;;-0.14;100.00;97814.47;1987655;89;21643;-79
2022/02/01 00:49:17;;;;;;;65.28;28.92;;;;;;;-0.18;100.00;97813.57;1984719;89;21045;-78
2022/02/01 00:52:18;;;;;;;69.25;29.25;;;;;;;-0.22;100.00;97819.47;2029413;87;21580;-79
2022/02/01 00:55:19;;;;;;;62.30;25.65;;;;;;;-0.22;100.00;97824.62;2022902;87;20969;-79
2022/02/01 00:58:20;;;;;;;75.80;29.00;;;;;;;-0.27;100.00;97825.50;2102936;84;21726;-80
2022/02/01 01:01:20;;;;;;;63.92;28.35;;;;;;;-0.32;100.00;97832.80;2103458;85;21110;-80
2022/02/01 01:04:21;;;;;;;57.93;27.00;;;;;;;-0.35;100.00;97833.88;2104409;84;20961;-80
2022/02/01 01:07:22;;;;;;;67.92;28.50;;;;;;;-0.35;100.00;97824.88;2101403;84;21111;-79
2022/02/01 01:10:23;;;;;;;72.65;32.28;;;;;;;-0.36;100.00;97828.41;2103094;85;21064;-80
2022/02/01 01:55:50;;;;;;;52.35;24.50;;;;;;;-0.71;100.00;97867.41;2171203;81;21616;-80
2022/02/01 01:58:51;;;;;;;48.15;23.00;;;;;;;-0.78;100.00;97864.19;2172963;81;21049;-79
2022/02/01 02:01:52;;;;;;;46.05;21.33;;;;;;;-0.84;100.00;97869.36;2196200;81;21053;-81
2022/02/01 02:04:53;;;;;;;46.25;21.73;;;;;;;-0.91;100.00;97872.94;2190849;81;21076;-80
2022/02/01 02:07:53;;;;;;;55.50;22.82;;;;;;;-0.98;100.00;97869.23;2181446;81;21699;-80
2022/02/01 02:11:02;;;;;;;52.20;22.85;;;;;;;-1.04;100.00;97877.45;2181548;81;21117;-80
2022/02/01 02:17:19;;;;;;;55.55;24.55;;;;;;;-1.08;100.00;97875.27;2205862;81;20998;-80
2022/02/01 02:20:20;;;;;;;60.10;24.92;;;;;;;-1.16;100.00;97874.14;2206380;81;21085;-79
2022/02/01 02:23:21;;;;;;;57.83;24.70;;;;;;;-1.17;100.00;97878.12;2204375;81;20990;-79
2022/02/01 02:26:21;;;;;;;58.78;25.75;;;;;;;-1.17;100.00;97881.98;2198226;81;21491;-79
2022/02/01 02:29:22;;;;;;;64.32;25.72;;;;;;;-1.16;100.00;97892.13;2181799;81;21112;-79
2022/02/01 02:32:25;;;;;;;58.13;25.85;;;;;;;-1.15;100.00;97892.94;2181900;81;21041;-80
2022/02/01 02:35:31;;;;;;;60.98;25.40;;;;;;;-1.15;100.00;97908.36;2181992;82;21019;-80
2022/02/01 02:38:45;;;;;;;71.37;27.60;;;;;;;-1.07;100.00;97921.86;2182144;81;21035;-80
2022/02/01 02:45:15;;;;;;;57.25;26.60;;;;;;;-1.06;100.00;97929.44;2168017;82;21253;-80
2022/02/01 02:48:09;;;;;;;61.77;23.77;;;;;;;-1.02;100.00;97928.70;2165928;82;20970;-79
2022/02/01 02:51:10;;;;;;;62.53;27.95;;;;;;;-0.96;100.00;97932.07;2146555;83;21017;-79
2022/02/01 02:54:11;;;;;;;49.50;23.20;;;;;;;-0.90;100.00;97929.00;2157667;81;20950;-79
2022/02/01 02:57:12;;;;;;;63.38;26.33;;;;;;;-0.90;100.00;97932.39;2178982;82;21035;-80
2022/02/01 03:00:12;;;;;;;60.73;24.75;;;;;;;-0.92;100.00;97935.53;2178778;82;21419;-79
2022/02/01 03:03:13;;;;;;;59.70;26.60;;;;;;;-0.88;100.00;97947.68;2178602;82;21074;-78
2022/02/01 03:06:14;;;;;;;68.15;27.87;;;;;;;-0.83;100.00;97952.42;2179347;82;20984;-79
2022/02/01 03:09:15;;;;;;;61.95;27.02;;;;;;;-0.79;100.00;97943.53;2178545;82;21082;-79
2022/02/01 03:12:31;;;;;;;60.67;28.55;;;;;;;-0.78;100.00;97950.30;2179414;82;21568;-80
2022/02/01 03:21:47;;;;;;;66.50;25.60;;;;;;;-0.78;100.00;97945.98;2160263;82;22148;-81
2022/02/01 03:24:48;;;;;;;50.60;22.98;;;;;;;-0.79;100.00;97966.20;2185057;81;21083;-80
2022/02/01 03:27:49;;;;;;;65.97;25.80;;;;;;;-0.84;100.00;97969.61;2188986;81;20957;-80
2022/02/01 03:30:50;;;;;;;54.25;25.75;;;;;;;-0.90;100.00;97969.66;2202075;81;21057;-80
2022/02/01 03:33:51;;;;;;;55.08;24.37;;;;;;;-0.93;100.00;97968.60;2203135;81;20956;-79
2022/02/01 03:36:52;;;;;;;48.08;21.52;;;;;;;-0.96;100.00;97974.47;2188774;81;21049;-80
2022/02/01 03:39:52;;;;;;;54.80;23.90;;;;;;;-0.99;100.00;97983.25;2188829;81;21500;-80
2022/02/01 03:42:53;;;;;;;51.95;24.72;;;;;;;-0.98;100.00;97991.78;2188905;81;20969;-79
2022/02/01 03:45:54;;;;;;;46.83;21.17;;;;;;;-1.04;100.00;97985.84;2188904;81;21118;-79
2022/02/01 03:48:55;;;;;;;58.13;25.75;;;;;;;-1.08;100.00;97991.71;2199960;80;20977;-80
2022/02/01 03:51:58;;;;;;;57.60;25.65;;;;;;;-1.10;100.00;97978.62;2207688;81;21041;-80
2022/02/01 03:54:58;;;;;;;66.80;29.23;;;;;;;-1.10;100.00;97989.71;2198208;80;21076;-79
2022/02/01 03:57:59;;;;;;;55.05;28.17;;;;;;;-1.07;100.00;97989.95;2193051;80;20983;-80
2022/02/01 04:01:00;;;;;;;65.95;29.12;;;;;;;-1.03;100.00;97983.61;2194310;81;21077;-80
2022/02/01 04:04:01;;;;;;;65.03;28.67;;;;;;;-0.98;100.00;97978.93;2191411;81;20953;-79
2022/02/01 04:07:01;;;;;;;66.65;27.80;;;;;;;-0.91;100.00;97976.21;2182157;82;21578;-79
2022/02/01 04:10:02;;;;;;;66.92;28.42;;;;;;;-0.93;100.00;97972.45;2182028;82;21099;-78
2022/02/01 04:13:04;;;;;;;65.80;26.27;;;;;;;-0.92;100.00;97979.70;2190701;81;20959;-79
2022/02/01 04:16:05;;;;;;;51.37;21.17;;;;;;;-0.99;100.00;97987.58;2183572;81;20946;-79
2022/02/01 04:19:06;;;;;;;59.67;25.05;;;;;;;-1.07;100.00;97994.63;2189759;81;21579;-79
2022/02/01 04:22:07;;;;;;;61.23;24.23;;;;;;;-1.15;100.00;97987.53;2200782;81;21005;-79
2022/02/01 04:25:08;;;;;;;67.17;28.20;;;;;;;-1.14;100.00;97981.92;2189545;81;20976;-80
2022/02/01 04:28:09;;;;;;;69.95;30.35;;;;;;;-1.17;100.00;97977.85;2182013;81;20962;-80
2022/02/01 04:31:10;;;;;;;64.30;30.05;;;;;;;-1.18;100.00;97980.55;2182270;82;21000;-80
2022/02/01 04:34:10;;;;;;;77.05;31.80;;;;;;;-1.19;100.00;97969.90;2181831;81;20957;-79
2022/02/01 04:37:11;;;;;;;63.35;27.82;;;;;;;-1.23;100.00;97969.81;2199748;81;21494;-79
2022/02/01 04:40:12;;;;;;;63.17;26.87;;;;;;;-1.34;100.00;97968.11;2207471;81;20993;-79
2022/02/01 04:43:13;;;;;;;56.40;25.80;;;;;;;-1.34;100.00;97968.11;2206840;81;20996;-79
2022/02/01 04:46:14;;;;;;;53.28;24.00;;;;;;;-1.37;100.00;97981.21;2194548;81;20978;-79
2022/02/01 04:49:15;;;;;;;52.05;22.62;;;;;;;-1.38;100.00;97982.59;2205315;81;20966;-79
2022/02/01 04:52:16;;;;;;;56.37;25.52;;;;;;;-1.43;100.00;97986.83;2181479;81;21017;-79
2022/02/01 04:55:17;;;;;;;47.83;22.65;;;;;;;-1.48;100.00;97988.92;2181692;81;21021;-79
2022/02/01 04:58:18;;;;;;;45.30;21.93;;;;;;;-1.53;100.00;97985.45;2181491;82;21005;-81
2022/02/01 05:01:24;;;;;;;51.05;22.37;;;;;;;-1.57;100.00;97994.79;2187022;81;21128;-82
2022/02/01 05:04:21;;;;;;;39.05;18.27;;;;;;;-1.59;100.00;97997.95;2189798;81;21050;-81
2022/02/01 05:07:22;;;;;;;47.75;22.93;;;;;;;-1.65;100.00;97988.97;2194988;81;21044;-78
2022/02/01 05:10:23;;;;;;;52.62;24.25;;;;;;;-1.70;100.00;97984.68;2201371;81;21252;-83
2022/02/01 05:13:55;;;;;;;55.08;24.50;;;;;;;-1.72;100.00;97985.27;2189871;81;21322;-80
2022/02/01 05:16:58;;;;;;;50.28;22.10;;;;;;;-1.72;100.00;97992.50;2180531;82;21003;-81
2022/02/01 05:19:54;;;;;;;53.60;23.90;;;;;;;-1.72;100.00;97990.41;2180246;81;20937;-80
2022/02/01 05:22:50;;;;;;;52.53;21.75;;;;;;;-1.65;100.00;98003.55;2181688;81;20921;-80
2022/02/01 05:25:51;;;;;;;54.50;23.40;;;;;;;-1.62;100.00;98002.05;2192519;81;20918;-79
2022/02/01 05:28:52;;;;;;;55.38;22.13;;;;;;;-1.61;100.00;98001.93;2207395;81;21572;-79
2022/02/01 05:31:52;;;;;;;47.90;21.12;;;;;;;-1.54;100.00;98010.78;2206827;81;20966;-79
2022/02/01 05:34:53;;;;;;;52.58;21.68;;;;;;;-1.48;100.00;98010.28;2199560;80;21470;-79
2022/02/01 05:37:54;;;;;;;49.35;21.52;;;;;;;-1.49;100.00;98020.21;2184423;81;20974;-80
2022/02/01 05:40:55;;;;;;;41.98;20.25;;;;;;;-1.48;100.00;98023.12;2181817;81;21026;-82
2022/02/01 05:43:56;;;;;;;46.70;22.62;;;;;;;-1.47;100.00;98029.08;2189381;81;20978;-80
2022/02/01 05:46:56;;;;;;;42.35;19.95;;;;;;;-1.42;100.00;98031.30;2190748;81;21505;-78
2022/02/01 05:49:57;;;;;;;52.78;23.00;;;;;;;-1.36;100.00;98035.95;2196272;81;20953;-78
2022/02/01 05:53:04;;;;;;;40.28;20.50;;;;;;;-1.31;100.00;98046.67;2181521;82;21067;-79
2022/02/01 05:56:05;;;;;;;43.30;20.90;;;;;;;-1.25;100.00;98052.14;2198809;81;21516;-78
2022/02/01 05:59:06;;;;;;;39.60;20.82;;;;;;;-1.15;100.00;98058.66;2189351;81;21020;-80
2022/02/01 06:02:06;;;;;;;49.40;22.62;;;;;;;-1.10;100.00;98055.23;2167117;82;21121;-80
2022/02/01 06:05:07;;;;;;;47.83;20.77;;;;;;;-1.11;100.00;98049.75;2145363;83;20927;-81
2022/02/01 06:08:09;;;;;;;44.60;21.90;;;;;;;-1.05;100.00;98055.70;2187355;81;21081;-82
2022/02/01 06:11:09;;;;;;;42.50;19.90;;;;;;;-1.06;100.00;98056.63;2181664;81;20970;-81
2022/02/01 06:14:10;;;;;;;43.48;20.50;;;;;;;-1.01;100.00;98056.25;2181609;82;20954;-80
2022/02/01 06:17:11;;;;;;;41.73;19.17;;;;;;;-1.00;100.00;98061.30;2196244;81;20971;-80
2022/02/01 06:20:11;;;;;;;52.65;23.87;;;;;;;-1.01;100.00;98066.53;2205202;81;21109;-79
2022/02/01 06:23:13;;;;;;;43.58;22.30;;;;;;;-1.03;100.00;98076.12;2205566;81;20995;-79
2022/02/01 06:26:13;;;;;;;44.25;22.58;;;;;;;-1.04;100.00;98071.92;2205333;81;22136;-80
2022/02/01 06:29:17;;;;;;;46.37;21.87;;;;;;;-1.05;100.00;98058.27;2192159;81;21022;-78
2022/02/01 06:32:18;;;;;;;52.40;23.92;;;;;;;-1.09;100.00;98059.93;2182081;82;21108;-77
2022/02/01 06:35:18;;;;;;;58.70;27.17;;;;;;;-1.13;100.00;98062.38;2182060;82;20941;-82
2022/02/01 06:38:28;;;;;;;63.35;27.77;;;;;;;-1.12;100.00;98067.86;2182636;82;21056;-77
2022/02/01 06:41:29;;;;;;;56.98;28.10;;;;;;;-1.09;100.00;98077.45;2182111;81;20981;-80
2022/02/01 06:44:30;;;;;;;52.53;24.27;;;;;;;-1.10;100.00;98078.36;2202878;81;21021;-77
2022/02/01 06:47:30;;;;;;;52.27;23.62;;;;;;;-1.06;100.00;98077.66;2205555;81;21044;-80
2022/02/01 06:50:31;;;;;;;44.77;21.97;;;;;;;-1.04;100.00;98085.59;2198633;81;21018;-79
2022/02/01 06:53:35;;;;;;;47.70;22.42;;;;;;;-1.02;100.00;98076.47;2203861;81;21128;-78
2022/02/01 06:56:34;;;;;;;53.20;22.07;;;;;;;-1.01;100.00;98074.24;2204654;81;21033;-80
2022/02/01 06:59:35;;;;;;;42.15;21.57;;;;;;;-0.88;100.00;98086.48;2202207;80;21058;-79
2022/02/01 07:02:36;;;;;;;54.42;23.83;;;;;;;-0.75;100.00;98088.87;2214813;80;21597;-79
2022/02/01 07:05:39;;;;;;;45.45;22.50;;;;;;;-0.62;100.00;98084.38;2214790;80;20997;-79
2022/02/01 07:08:39;;;;;;;42.70;19.27;;;;;;;-0.51;100.00;98088.17;2214991;80;21054;-79
2022/02/01 07:11:40;;;;;;;46.53;21.23;;;;;;;-0.41;100.00;98090.34;2214936;80;20977;-80
2022/02/01 07:14:40;;;;;;;46.20;20.20;;;;;;;-0.36;100.00;98089.50;2214318;80;20974;-80
2022/02/01 07:17:41;;;;;;;46.80;21.30;;;;;;;-0.29;100.00;98088.51;2214679;80;20981;-81
2022/02/01 07:20:42;;;;;;;49.25;22.10;;;;;;;-0.26;100.00;98087.46;2215563;80;20986;-80
2022/02/01 07:23:42;;;;;;;45.15;20.05;;;;;;;-0.22;100.00;98097.36;2215449;80;21572;-82
2022/02/01 07:26:54;;;;;;;43.65;20.27;;;;;;;-0.16;100.00;98094.29;2216811;79;21021;-84
2022/02/01 07:29:46;;;;;;;45.65;21.73;;;;;;;-0.12;100.00;98096.94;2213728;80;20989;-80
2022/02/01 07:32:47;;;;;;;43.15;20.12;;;;;;;-0.07;100.00;98099.14;2203785;80;21477;-78
2022/02/01 07:35:48;;;;;;;42.95;23.32;;;;;;;-0.08;100.00;98094.47;2194874;80;21080;-81
2022/02/01 07:38:49;;;;;;;50.15;23.75;;;;;;;-0.04;100.00;98100.98;2210902;80;20984;-84
2022/02/01 07:41:51;;;;;;;49.23;22.13;;;;;;;0.05;100.00;98101.97;2216388;80;21008;-79
2022/02/01 07:44:52;;;;;;;53.17;24.40;;;;;;;0.05;100.00;98107.12;2215919;80;21496;-80
2022/02/01 07:47:53;;;;;;;48.45;23.38;;;;;;;0.10;100.00;98101.13;2215989;80;21245;-80
2022/02/01 07:50:53;;;;;;;49.20;20.55;;;;;;;0.20;100.00;98105.84;2215960;80;21020;-80
2022/02/01 07:53:54;;;;;;;38.55;19.02;;;;;;;0.22;100.00;98108.30;2216113;80;21032;-80
2022/02/01 07:56:55;;;;;;;36.20;18.00;;;;;;;0.31;100.00;98100.27;2215925;80;20970;-80
2022/02/01 07:59:56;;;;;;;46.15;21.68;;;;;;;0.35;100.00;98093.89;2203671;80;21008;-80
2022/02/01 08:02:57;;;;;;;45.85;20.75;;;;;;;0.45;100.00;98092.16;2188657;81;20966;-81
2022/02/01 08:05:57;;;;;;;41.42;21.05;;;;;;;0.41;100.00;98094.67;2188439;81;21084;-82
2022/02/01 08:09:04;;;;;;;41.48;21.45;;;;;;;0.43;100.00;98091.02;2188563;81;21480;-80
2022/02/01 08:12:03;;;;;;;36.80;17.57;;;;;;;0.56;100.00;98095.48;2194817;81;21458;-82
2022/02/01 08:18:51;;;;;;;41.98;20.43;;;;;;;0.72;100.00;98089.80;2192496;81;21058;-82
2022/02/01 08:21:42;;;;;;;39.80;19.65;;;;;;;0.89;100.00;98093.97;2198972;81;20953;-85
2022/02/01 08:24:39;;;;;;;39.35;21.15;;;;;;;1.04;100.00;98096.03;2201312;81;21133;-84
2022/02/01 08:27:40;;;;;;;47.33;19.37;;;;;;;1.21;100.00;98091.97;2205036;80;21089;-82
2022/02/01 08:30:41;;;;;;;42.05;19.45;;;;;;;1.40;100.00;98098.41;2204205;81;21042;-79
2022/02/01 08:33:42;;;;;;;43.38;19.05;;;;;;;1.46;100.00;98093.16;2137756;83;20972;-80
2022/02/01 08:36:43;;;;;;;39.33;17.57;;;;;;;1.56;100.00;98092.70;2200749;80;20990;-85
2022/02/01 08:39:43;;;;;;;29.32;16.85;;;;;;;1.64;100.00;98088.13;2185601;79;21020;-81
2022/02/01 08:42:44;;;;;;;32.60;17.05;;;;;;;1.63;100.00;98091.66;2206661;81;20986;-80
2022/02/01 08:45:47;;;;;;;33.92;18.10;;;;;;;1.57;100.00;98095.63;2203615;81;21482;-79
2022/02/01 08:48:48;;;;;;;33.20;16.97;;;;;;;1.57;100.00;98099.50;2188428;80;21068;-80
2022/02/01 08:51:58;;;;;;;39.18;16.57;;;;;;;1.61;100.00;98100.02;2183575;81;20981;-82
2022/02/01 08:54:52;;;;;;;35.68;17.65;;;;;;;1.60;100.00;98098.39;2198511;80;20979;-82
2022/02/01 08:57:53;;;;;;;32.23;16.77;;;;;;;1.56;100.00;98099.16;2193921;81;21051;-85
2022/02/01 09:00:54;;;;;;;34.48;15.45;;;;;;;1.46;100.00;98094.45;2184212;80;20998;-85
2022/02/01 09:03:55;;;;;;;35.75;16.27;;;;;;;1.33;100.00;98090.88;2181728;81;20958;-86
2022/02/01 09:06:55;;;;;;;28.05;16.07;;;;;;;1.28;100.00;98094.36;2187004;81;20957;-87
2022/02/01 09:09:56;;;;;;;33.00;15.88;;;;;;;1.20;100.00;98099.38;2205162;81;21057;-87
2022/02/01 09:12:58;;;;;;;32.42;15.35;;;;;;;1.12;100.00;98100.05;2200174;81;20937;-87
2022/02/01 09:15:58;;;;;;;34.58;17.32;;;;;;;1.04;100.00;98096.03;2198667;81;21013;-85
2022/02/01 09:18:59;;;;;;;29.50;15.08;;;;;;;1.03;100.00;98089.25;2183350;81;21073;-86
2022/02/01 09:22:05;;;;;;;42.50;18.25;;;;;;;1.08;100.00;98102.53;2181808;82;21636;-86
2022/02/01 09:25:05;;;;;;;36.42;18.57;;;;;;;1.23;100.00;98100.38;2181917;82;21471;-85
2022/02/01 09:28:06;;;;;;;32.50;16.48;;;;;;;1.47;100.00;98105.14;2181993;81;21061;-86
2022/02/01 09:31:09;;;;;;;22.35;11.68;;;;;;;1.69;100.00;98107.41;2193803;81;20935;-84
2022/02/01 09:34:10;;;;;;;20.08;12.10;;;;;;;1.72;100.00;98108.89;2194035;81;21017;-84
2022/02/01 09:37:12;;;;;;;21.30;11.97;;;;;;;1.69;100.00;98119.51;2189341;81;21511;-83
2022/02/01 09:40:13;;;;;;;23.75;11.97;;;;;;;1.70;100.00;98112.91;2182152;82;21022;-83
2022/02/01 09:43:14;;;;;;;20.15;11.55;;;;;;;1.80;100.00;98110.31;2182306;81;21016;-83
2022/02/01 09:46:15;;;;;;;17.77;10.58;;;;;;;1.86;100.00;98107.19;2188503;81;20954;-83
2022/02/01 09:49:19;;;;;;;20.05;10.45;;;;;;;1.98;100.00;98109.12;2198974;81;21025;-83
2022/02/01 09:52:22;;;;;;;23.38;10.35;;;;;;;2.12;100.00;98107.39;2205272;81;21062;-82
2022/02/01 09:55:22;;;;;;;15.48;10.32;;;;;;;2.25;100.00;98100.61;2195364;81;21053;-83
2022/02/01 09:58:23;;;;;;;20.92;10.15;;;;;;;2.37;100.00;98102.05;2185019;81;20948;-81
2022/02/01 10:01:26;;;;;;;18.30;9.35;;;;;;;2.44;100.00;98098.42;2199302;80;21006;-84
2022/02/01 10:04:31;;;;;;;16.40;9.83;;;;;;;2.49;100.00;98096.23;2210565;80;21066;-84
2022/02/01 10:07:29;;;;;;;21.12;9.43;;;;;;;2.49;100.00;98096.23;2211709;80;21005;-83
2022/02/01 10:10:31;;;;;;;18.27;10.80;;;;;;;2.48;100.00;98098.48;2216167;80;21500;-89
2022/02/01 10:13:36;;;;;;;16.77;9.40;;;;;;;2.43;100.00;98093.73;2216007;80;20980;-86
2022/02/01 10:16:34;;;;;;;12.90;8.03;;;;;;;2.43;100.00;98094.22;2215694;80;21543;-88
2022/02/01 10:19:37;;;;;;;18.07;9.38;;;;;;;2.41;100.00;98084.50;2206607;80;21014;-84
2022/02/01 10:22:38;;;;;;;15.55;9.28;;;;;;;2.39;100.00;98090.30;2207140;79;20982;-83
2022/02/01 10:25:39;;;;;;;17.32;10.40;;;;;;;2.37;100.00;98089.61;2212109;80;21053;-84
2022/02/01 10:31:58;;;;;;;14.60;9.05;;;;;;;2.34;100.00;98077.80;2179413;81;21124;-85
2022/02/01 10:34:58;;;;;;;15.00;8.48;;;;;;;2.32;100.00;98079.72;2186252;81;21115;-84
2022/02/01 10:37:59;;;;;;;16.75;8.65;;;;;;;2.24;100.00;98075.26;2188953;81;21076;-84
2022/02/01 10:41:00;;;;;;;20.25;9.43;;;;;;;2.22;100.00;98066.03;2179751;81;20957;-84
2022/02/01 10:44:01;;;;;;;18.40;8.90;;;;;;;2.15;100.00;98058.03;2169017;82;21012;-84
2022/02/01 10:47:01;;;;;;;19.05;8.70;;;;;;;2.07;100.00;98054.53;2169082;82;21053;-84
2022/02/01 10:50:03;;;;;;;14.65;8.55;;;;;;;2.02;100.00;98052.86;2168883;82;21036;-83
2022/02/01 10:53:04;;;;;;;30.95;17.07;;;;;;;2.06;100.00;98047.73;2168808;81;21001;-84
2022/02/01 10:56:05;;;;;;;183.55;95.47;;;;;;;2.07;100.00;98050.66;2166184;82;20965;-83
2022/02/01 10:59:05;;;;;;;104.67;59.30;;;;;;;2.12;100.00;98042.02;2166736;82;21069;-85
2022/02/01 11:02:06;;;;;;;67.30;41.05;;;;;;;2.18;100.00;98030.61;2158760;82;21093;-84
2022/02/01 11:05:09;;;;;;;44.60;17.57;;;;;;;2.15;100.00;98030.09;2148318;82;20970;-84
2022/02/01 11:08:09;;;;;;;27.62;12.30;;;;;;;2.12;100.00;98038.14;2153866;82;21060;-84
2022/02/01 11:11:10;;;;;;;26.73;11.28;;;;;;;2.11;100.00;98028.29;2177980;81;21035;-86
2022/02/01 11:14:11;;;;;;;27.20;10.98;;;;;;;2.13;100.00;98032.02;2193069;81;21463;-84
2022/02/01 11:17:12;;;;;;;18.25;11.97;;;;;;;2.13;100.00;98028.95;2192855;81;21086;-84
2022/02/01 11:20:13;;;;;;;25.55;17.98;;;;;;;2.18;100.00;98034.48;2192885;81;21047;-83
2022/02/01 11:23:20;;;;;;;23.57;13.32;;;;;;;2.21;100.00;98039.39;2185624;81;21004;-84
2022/02/01 11:26:19;;;;;;;20.05;10.10;;;;;;;2.23;100.00;98025.03;2185441;81;21457;-85
2022/02/01 11:32:27;;;;;;;18.35;13.93;;;;;;;2.23;100.00;98011.63;2192096;81;21061;-84
2022/02/01 11:35:28;;;;;;;25.08;13.18;;;;;;;2.20;100.00;97995.63;2192669;81;21027;-84
2022/02/01 11:38:29;;;;;;;20.92;10.70;;;;;;;2.20;100.00;97995.63;2192950;81;21047;-83
2022/02/01 11:41:30;;;;;;;17.95;9.48;;;;;;;2.23;100.00;97988.39;2192598;81;21031;-84
2022/02/01 11:44:31;;;;;;;19.55;9.13;;;;;;;2.30;100.00;97991.69;2192443;81;21455;-85
2022/02/01 11:47:32;;;;;;;18.00;10.20;;;;;;;2.31;100.00;97981.21;2192468;81;21059;-84
2022/02/01 11:50:32;;;;;;;22.62;11.45;;;;;;;2.31;100.00;97981.69;2192448;81;20960;-83
2022/02/01 11:53:33;;;;;;;23.47;11.33;;;;;;;2.26;100.00;97987.27;2192513;81;21023;-83
2022/02/01 11:56:34;;;;;;;39.25;13.25;;;;;;;2.21;100.00;97978.69;2192647;81;21055;-82
2022/02/01 11:59:35;;;;;;;30.90;13.25;;;;;;;2.19;100.00;97972.02;2192673;81;20928;-83
2022/02/01 12:02:41;;;;;;;53.40;22.98;;;;;;;2.17;100.00;97970.88;2186899;80;21072;-83
2022/02/01 12:05:42;;;;;;;190.18;89.50;;;;;;;2.18;100.00;97965.23;2181805;81;20977;-84
2022/02/01 12:08:43;;;;;;;122.67;66.37;;;;;;;2.21;100.00;97974.81;2181585;81;21037;-84
2022/02/01 12:11:44;;;;;;;34.18;17.82;;;;;;;2.26;100.00;97952.41;2181896;81;21015;-83
2022/02/01 12:14:45;;;;;;;29.25;12.58;;;;;;;2.29;100.00;97948.26;2181946;81;20964;-84
2022/02/01 12:17:46;;;;;;;21.60;11.22;;;;;;;2.27;100.00;97947.08;2182079;81;20957;-84
2022/02/01 12:20:47;;;;;;;25.17;11.53;;;;;;;2.31;100.00;97945.04;2197884;81;20985;-85
2022/02/01 12:23:47;;;;;;;20.35;10.30;;;;;;;2.31;100.00;97946.33;2201526;81;21040;-83
2022/02/01 12:26:50;;;;;;;26.20;11.50;;;;;;;2.34;100.00;97929.72;2181967;81;21000;-86
2022/02/01 12:29:51;;;;;;;25.05;13.30;;;;;;;2.34;100.00;97923.27;2187863;81;20990;-84
2022/02/01 12:32:52;;;;;;;52.23;33.42;;;;;;;2.37;100.00;97914.72;2193630;81;21073;-84
2022/02/01 12:35:52;;;;;;;68.07;34.15;;;;;;;2.38;100.00;97903.45;2189374;81;21505;-83
2022/02/01 12:38:53;;;;;;;68.45;27.17;;;;;;;2.43;100.00;97895.25;2191520;81;20994;-85
2022/02/01 12:41:59;;;;;;;42.43;18.75;;;;;;;2.46;100.00;97905.28;2191699;81;20998;-85
2022/02/01 12:48:17;;;;;;;33.30;15.85;;;;;;;2.43;100.00;97895.25;2184131;81;21032;-85
2022/02/01 12:51:18;;;;;;;57.53;24.45;;;;;;;2.39;100.00;97896.03;2204625;81;21140;-86
2022/02/01 12:54:22;;;;;;;57.15;29.10;;;;;;;2.30;100.00;97896.92;2195186;80;20965;-88
2022/02/01 12:57:23;;;;;;;37.73;20.57;;;;;;;2.29;100.00;97896.59;2183669;81;21044;-85
2022/02/01 13:00:24;;;;;;;50.80;29.48;;;;;;;2.26;100.00;97887.82;2193905;80;20982;-85
2022/02/01 13:03:25;;;;;;;32.48;15.10;;;;;;;2.28;100.00;97887.19;2192548;80;20981;-88
2022/02/01 13:06:26;;;;;;;25.40;11.90;;;;;;;2.30;100.00;97881.42;2188848;81;21109;-86
2022/02/01 13:13:00;;;;;;;26.15;16.12;;;;;;;2.29;100.00;97881.09;2190159;80;21039;-85
2022/02/01 13:22:05;;;;;;;17.80;8.95;;;;;;;2.33;100.00;97873.84;2212840;80;21570;-87
2022/02/01 13:25:06;;;;;;;21.33;10.93;;;;;;;2.24;100.00;97863.43;2212055;80;20977;-85
2022/02/01 13:28:06;;;;;;;17.48;11.30;;;;;;;2.18;100.00;97869.66;2212260;80;21619;-84
2022/02/01 13:31:07;;;;;;;20.90;11.20;;;;;;;2.09;100.00;97866.19;2206638;80;20947;-84
2022/02/01 13:34:14;;;;;;;19.25;11.43;;;;;;;2.00;100.00;97854.15;2174307;82;21140;-85
2022/02/01 13:37:19;;;;;;;20.60;11.40;;;;;;;1.95;100.00;97848.15;2202763;80;21480;-86
2022/02/01 13:40:17;;;;;;;23.73;15.30;;;;;;;1.98;100.00;97841.39;2211832;80;20986;-86
2022/02/01 13:43:18;;;;;;;20.40;11.45;;;;;;;1.98;100.00;97841.39;2211291;80;21092;-85
2022/02/01 13:46:20;;;;;;;20.08;11.93;;;;;;;1.99;100.00;97836.55;2202349;80;20966;-85
2022/02/01 13:49:20;;;;;;;22.87;11.48;;;;;;;1.98;100.00;97827.67;2193059;80;21041;-85
2022/02/01 13:52:22;;;;;;;17.70;10.80;;;;;;;1.95;100.00;97831.36;2169136;81;21669;-85
2022/02/01 13:55:26;;;;;;;23.92;16.82;;;;;;;1.95;100.00;97825.39;2188825;80;21088;-84
2022/02/01 13:58:27;;;;;;;27.27;16.25;;;;;;;1.91;100.00;97822.75;2189204;81;21535;-85
2022/02/01 14:01:28;;;;;;;23.83;13.25;;;;;;;1.86;100.00;97815.47;2188959;81;20974;-84
2022/02/01 14:04:38;;;;;;;20.12;12.90;;;;;;;1.82;100.00;97810.72;2182125;81;20986;-85
2022/02/01 14:07:39;;;;;;;25.72;13.85;;;;;;;1.77;100.00;97804.72;2184712;81;20961;-84
2022/02/01 14:14:05;;;;;;;24.00;12.55;;;;;;;1.67;100.00;97785.43;2188366;81;21365;-84
2022/02/01 14:26:43;;;;;;;23.10;15.30;;;;;;;1.53;100.00;97779.94;2181781;82;20996;-83
2022/02/01 14:36:03;;;;;;;20.75;12.50;;;;;;;1.52;100.00;97763.66;2176722;81;21064;-92
2022/02/01 14:45:36;;;;;;;21.17;12.78;;;;;;;1.46;100.00;97764.70;2182501;81;21035;-85
2022/02/01 14:48:37;;;;;;;16.60;11.93;;;;;;;1.46;100.00;97755.67;2194399;81;20922;-86
2022/02/01 14:51:38;;;;;;;24.02;12.35;;;;;;;1.43;100.00;97748.56;2198288;80;20990;-87
2022/02/01 14:54:51;;;;;;;27.25;14.53;;;;;;;1.45;100.00;97748.89;2190989;81;21029;-83
2022/02/01 15:04:46;;;;;;;28.57;17.17;;;;;;;1.36;100.00;97733.33;2182584;80;21520;-82
2022/02/01 15:14:00;;;;;;;33.80;16.77;;;;;;;1.34;100.00;97724.93;2143804;82;20222;-83
2022/02/01 15:17:01;;;;;;;35.38;19.48;;;;;;;1.33;100.00;97719.44;2148401;82;20990;-84
2022/02/01 15:20:02;;;;;;;28.87;17.15;;;;;;;1.35;100.00;97720.58;2167291;82;20996;-84
2022/02/01 15:23:02;;;;;;;30.70;17.20;;;;;;;1.37;100.00;97707.05;2168783;82;21333;-83
2022/02/01 15:26:05;;;;;;;26.23;16.30;;;;;;;1.32;100.00;97698.95;2144425;82;21010;-85
2022/02/01 15:29:06;;;;;;;25.95;14.25;;;;;;;1.28;100.00;97693.30;2168499;82;21017;-89
2022/02/01 15:32:07;;;;;;;38.85;21.57;;;;;;;1.28;100.00;97707.48;2168775;82;21024;-88
2022/02/01 15:35:13;;;;;;;30.52;17.50;;;;;;;1.24;100.00;97691.14;2168021;82;21020;-83
2022/02/01 15:38:13;;;;;;;38.98;19.30;;;;;;;1.22;100.00;97693.05;2168048;82;21135;-86
2022/02/01 15:57:43;;;;;;;31.17;15.93;;;;;;;1.08;100.00;97677.10;2181840;81;20968;-84
2022/02/01 16:00:42;;;;;;;32.75;16.07;;;;;;;1.04;100.00;97662.08;2188165;81;21505;-86
2022/02/01 16:03:44;;;;;;;36.13;17.30;;;;;;;1.04;100.00;97656.92;2190767;81;21069;-84
2022/02/01 16:06:52;;;;;;;32.73;16.90;;;;;;;0.99;100.00;97655.25;2197382;81;21101;-82
2022/02/01 16:13:04;;;;;;;134.00;68.47;;;;;;;0.92;100.00;97649.88;2185762;81;20947;-81
2022/02/01 16:16:00;;;;;;;66.92;35.23;;;;;;;0.88;100.00;97645.95;2187199;81;21508;-84
2022/02/01 16:19:02;;;;;;;41.68;20.35;;;;;;;0.83;100.00;97634.80;2182123;81;21133;-83
2022/02/01 16:22:03;;;;;;;32.35;16.20;;;;;;;0.78;100.00;97621.53;2184607;81;21026;-84
2022/02/01 16:25:04;;;;;;;36.05;16.70;;;;;;;0.75;100.00;97615.39;2147433;81;21038;-83
2022/02/01 16:28:05;;;;;;;32.80;15.72;;;;;;;0.71;100.00;97606.78;2190906;81;21049;-81
2022/02/01 16:31:05;;;;;;;32.83;15.98;;;;;;;0.64;100.00;97601.87;2188942;81;21518;-80